sensor_id;sensor_type;location;lat;lon;timestamp;P1;durP1;ratioP1;P2;durP2;ratioP2
3050;SDS011;1535;51.098;6.414;2023-07-31T00:01:04;11.63;;;9.03;;
3050;SDS011;1535;51.098;6.414;2023-07-31T00:03:31;13.50;;;7.13;;
3050;SDS011;1535;51.098;6.414;2023-07-31T00:05:59;8.00;;;7.60;;
3050;SDS011;1535;51.098;6.414;2023-07-31T00:08:27;8.07;;;7.37;;
3050;SDS011;1535;51.098;6.414;2023-07-31T00:10:54;7.17;;;6.87;;
3050;SDS011;1535;51.098;6.414;2023-07-31T00:13:20;7.03;;;6.63;;
3050;SDS011;1535;51.098;6.414;2023-07-31T00:15:47;6.83;;;6.43;;
3050;SDS011;1535;51.098;6.414;2023-07-31T00:18:14;9.03;;;8.37;;
3050;SDS011;1535;51.098;6.414;2023-07-31T00:20:41;5.50;;;5.40;;
3050;SDS011;1535;51.098;6.414;2023-07-31T00:23:08;8.87;;;8.00;;
3050;SDS011;1535;51.098;6.414;2023-07-31T00:25:35;7.00;;;6.33;;
3050;SDS011;1535;51.098;6.414;2023-07-31T00:28:02;5.70;;;5.40;;
3050;SDS011;1535;51.098;6.414;2023-07-31T00:30:29;6.10;;;5.80;;
3050;SDS011;1535;51.098;6.414;2023-07-31T00:32:57;6.97;;;6.17;;
3050;SDS011;1535;51.098;6.414;2023-07-31T00:35:24;5.77;;;5.47;;
3050;SDS011;1535;51.098;6.414;2023-07-31T00:37:52;5.60;;;5.40;;
3050;SDS011;1535;51.098;6.414;2023-07-31T00:40:20;6.53;;;6.07;;
3050;SDS011;1535;51.098;6.414;2023-07-31T00:42:46;14.87;;;4.73;;
3050;SDS011;1535;51.098;6.414;2023-07-31T00:45:13;4.60;;;4.30;;
3050;SDS011;1535;51.098;6.414;2023-07-31T00:47:41;5.73;;;5.23;;
3050;SDS011;1535;51.098;6.414;2023-07-31T00:50:09;8.40;;;4.97;;
3050;SDS011;1535;51.098;6.414;2023-07-31T00:52:36;5.27;;;4.77;;
3050;SDS011;1535;51.098;6.414;2023-07-31T00:55:03;4.70;;;4.37;;
3050;SDS011;1535;51.098;6.414;2023-07-31T00:57:33;4.20;;;4.00;;
3050;SDS011;1535;51.098;6.414;2023-07-31T01:00:02;5.20;;;4.67;;
3050;SDS011;1535;51.098;6.414;2023-07-31T01:02:30;10.60;;;4.03;;
3050;SDS011;1535;51.098;6.414;2023-07-31T01:04:57;5.20;;;4.83;;
3050;SDS011;1535;51.098;6.414;2023-07-31T01:07:26;7.57;;;4.80;;
3050;SDS011;1535;51.098;6.414;2023-07-31T01:09:59;6.53;;;4.30;;
3050;SDS011;1535;51.098;6.414;2023-07-31T01:12:36;5.37;;;5.00;;
3050;SDS011;1535;51.098;6.414;2023-07-31T01:15:04;8.50;;;5.73;;
3050;SDS011;1535;51.098;6.414;2023-07-31T01:17:36;7.60;;;5.57;;
3050;SDS011;1535;51.098;6.414;2023-07-31T01:20:03;18.33;;;5.40;;
3050;SDS011;1535;51.098;6.414;2023-07-31T01:25:51;5.90;;;4.70;;
3050;SDS011;1535;51.098;6.414;2023-07-31T01:28:28;6.97;;;4.77;;
3050;SDS011;1535;51.098;6.414;2023-07-31T01:31:02;5.53;;;4.47;;
3050;SDS011;1535;51.098;6.414;2023-07-31T01:33:32;5.30;;;4.73;;
3050;SDS011;1535;51.098;6.414;2023-07-31T01:35:59;3.77;;;3.57;;
3050;SDS011;1535;51.098;6.414;2023-07-31T01:38:28;6.60;;;4.57;;
3050;SDS011;1535;51.098;6.414;2023-07-31T01:40:57;6.73;;;4.90;;
3050;SDS011;1535;51.098;6.414;2023-07-31T01:43:24;3.83;;;3.53;;
3050;SDS011;1535;51.098;6.414;2023-07-31T01:45:51;9.07;;;5.53;;
3050;SDS011;1535;51.098;6.414;2023-07-31T01:48:18;7.10;;;5.13;;
3050;SDS011;1535;51.098;6.414;2023-07-31T01:50:45;4.90;;;4.00;;
3050;SDS011;1535;51.098;6.414;2023-07-31T01:53:11;4.00;;;3.77;;
3050;SDS011;1535;51.098;6.414;2023-07-31T01:55:38;3.33;;;3.23;;
3050;SDS011;1535;51.098;6.414;2023-07-31T01:58:07;4.40;;;4.00;;
3050;SDS011;1535;51.098;6.414;2023-07-31T02:00:35;3.93;;;3.53;;
3050;SDS011;1535;51.098;6.414;2023-07-31T02:03:02;4.40;;;4.10;;
3050;SDS011;1535;51.098;6.414;2023-07-31T02:05:29;3.87;;;3.67;;
3050;SDS011;1535;51.098;6.414;2023-07-31T02:07:57;3.43;;;3.13;;
3050;SDS011;1535;51.098;6.414;2023-07-31T02:10:25;3.37;;;3.17;;
3050;SDS011;1535;51.098;6.414;2023-07-31T02:12:52;9.73;;;4.30;;
3050;SDS011;1535;51.098;6.414;2023-07-31T02:15:20;3.37;;;3.17;;
3050;SDS011;1535;51.098;6.414;2023-07-31T02:17:47;9.07;;;3.47;;
3050;SDS011;1535;51.098;6.414;2023-07-31T02:20:14;4.13;;;2.93;;
3050;SDS011;1535;51.098;6.414;2023-07-31T02:22:40;3.10;;;3.00;;
3050;SDS011;1535;51.098;6.414;2023-07-31T02:25:08;2.70;;;2.60;;
3050;SDS011;1535;51.098;6.414;2023-07-31T02:27:34;3.97;;;3.57;;
3050;SDS011;1535;51.098;6.414;2023-07-31T02:30:02;6.90;;;3.40;;
3050;SDS011;1535;51.098;6.414;2023-07-31T02:32:30;3.13;;;3.03;;
3050;SDS011;1535;51.098;6.414;2023-07-31T02:34:57;4.00;;;3.73;;
3050;SDS011;1535;51.098;6.414;2023-07-31T02:37:25;4.20;;;3.80;;
3050;SDS011;1535;51.098;6.414;2023-07-31T02:39:54;4.10;;;3.57;;
3050;SDS011;1535;51.098;6.414;2023-07-31T02:42:22;4.37;;;4.17;;
3050;SDS011;1535;51.098;6.414;2023-07-31T02:44:49;4.57;;;4.27;;
3050;SDS011;1535;51.098;6.414;2023-07-31T02:47:20;2.90;;;2.80;;
3050;SDS011;1535;51.098;6.414;2023-07-31T02:49:49;4.60;;;4.20;;
3050;SDS011;1535;51.098;6.414;2023-07-31T02:52:17;6.60;;;5.30;;
3050;SDS011;1535;51.098;6.414;2023-07-31T02:54:44;4.03;;;3.73;;
3050;SDS011;1535;51.098;6.414;2023-07-31T02:57:12;3.97;;;3.77;;
3050;SDS011;1535;51.098;6.414;2023-07-31T02:59:38;3.50;;;3.17;;
3050;SDS011;1535;51.098;6.414;2023-07-31T03:02:06;7.47;;;3.60;;
3050;SDS011;1535;51.098;6.414;2023-07-31T03:04:33;11.40;;;5.30;;
3050;SDS011;1535;51.098;6.414;2023-07-31T03:07:02;4.03;;;3.83;;
3050;SDS011;1535;51.098;6.414;2023-07-31T03:09:29;4.40;;;4.20;;
3050;SDS011;1535;51.098;6.414;2023-07-31T03:11:56;4.93;;;4.50;;
3050;SDS011;1535;51.098;6.414;2023-07-31T03:14:23;5.33;;;4.93;;
3050;SDS011;1535;51.098;6.414;2023-07-31T03:16:51;5.70;;;5.30;;
3050;SDS011;1535;51.098;6.414;2023-07-31T03:19:18;4.90;;;4.60;;
3050;SDS011;1535;51.098;6.414;2023-07-31T03:21:46;4.60;;;4.30;;
3050;SDS011;1535;51.098;6.414;2023-07-31T03:24:14;4.20;;;4.00;;
3050;SDS011;1535;51.098;6.414;2023-07-31T03:26:42;3.93;;;3.83;;
3050;SDS011;1535;51.098;6.414;2023-07-31T03:29:09;4.07;;;3.87;;
3050;SDS011;1535;51.098;6.414;2023-07-31T03:31:36;7.63;;;5.13;;
3050;SDS011;1535;51.098;6.414;2023-07-31T03:34:03;26.20;;;5.33;;
3050;SDS011;1535;51.098;6.414;2023-07-31T03:36:30;5.10;;;4.80;;
3050;SDS011;1535;51.098;6.414;2023-07-31T03:38:57;3.67;;;3.47;;
3050;SDS011;1535;51.098;6.414;2023-07-31T03:41:25;3.20;;;3.10;;
3050;SDS011;1535;51.098;6.414;2023-07-31T03:43:52;4.53;;;4.23;;
3050;SDS011;1535;51.098;6.414;2023-07-31T03:46:21;4.47;;;4.20;;
3050;SDS011;1535;51.098;6.414;2023-07-31T03:48:48;6.73;;;5.53;;
3050;SDS011;1535;51.098;6.414;2023-07-31T03:51:15;4.00;;;3.90;;
3050;SDS011;1535;51.098;6.414;2023-07-31T03:53:43;6.77;;;5.37;;
3050;SDS011;1535;51.098;6.414;2023-07-31T03:56:10;13.17;;;6.03;;
3050;SDS011;1535;51.098;6.414;2023-07-31T03:58:38;4.40;;;4.30;;
3050;SDS011;1535;51.098;6.414;2023-07-31T04:01:05;5.27;;;5.07;;
3050;SDS011;1535;51.098;6.414;2023-07-31T04:03:33;5.67;;;5.27;;
3050;SDS011;1535;51.098;6.414;2023-07-31T04:06:00;4.90;;;4.80;;
3050;SDS011;1535;51.098;6.414;2023-07-31T04:08:27;6.13;;;5.70;;
3050;SDS011;1535;51.098;6.414;2023-07-31T04:10:54;6.33;;;5.87;;
3050;SDS011;1535;51.098;6.414;2023-07-31T04:13:21;5.57;;;5.10;;
3050;SDS011;1535;51.098;6.414;2023-07-31T04:15:50;4.43;;;4.33;;
3050;SDS011;1535;51.098;6.414;2023-07-31T04:18:19;4.33;;;4.13;;
3050;SDS011;1535;51.098;6.414;2023-07-31T04:20:46;5.40;;;5.07;;
3050;SDS011;1535;51.098;6.414;2023-07-31T04:23:12;4.53;;;4.33;;
3050;SDS011;1535;51.098;6.414;2023-07-31T04:25:40;6.87;;;5.93;;
3050;SDS011;1535;51.098;6.414;2023-07-31T04:28:08;6.90;;;4.20;;
3050;SDS011;1535;51.098;6.414;2023-07-31T04:30:36;5.07;;;4.77;;
3050;SDS011;1535;51.098;6.414;2023-07-31T04:33:04;4.30;;;4.00;;
3050;SDS011;1535;51.098;6.414;2023-07-31T04:35:32;10.77;;;6.17;;
3050;SDS011;1535;51.098;6.414;2023-07-31T04:37:58;5.43;;;4.93;;
3050;SDS011;1535;51.098;6.414;2023-07-31T04:40:25;5.20;;;4.67;;
3050;SDS011;1535;51.098;6.414;2023-07-31T04:42:52;4.60;;;4.30;;
3050;SDS011;1535;51.098;6.414;2023-07-31T04:45:19;7.70;;;6.40;;
3050;SDS011;1535;51.098;6.414;2023-07-31T04:47:47;5.40;;;5.10;;
3050;SDS011;1535;51.098;6.414;2023-07-31T04:50:16;5.63;;;5.00;;
3050;SDS011;1535;51.098;6.414;2023-07-31T04:52:43;5.10;;;4.73;;
3050;SDS011;1535;51.098;6.414;2023-07-31T04:55:11;4.43;;;4.23;;
3050;SDS011;1535;51.098;6.414;2023-07-31T04:57:39;3.93;;;3.83;;
3050;SDS011;1535;51.098;6.414;2023-07-31T05:00:07;5.93;;;5.37;;
3050;SDS011;1535;51.098;6.414;2023-07-31T05:02:34;6.80;;;5.47;;
3050;SDS011;1535;51.098;6.414;2023-07-31T05:05:04;4.63;;;4.33;;
3050;SDS011;1535;51.098;6.414;2023-07-31T05:07:32;4.57;;;4.43;;
3050;SDS011;1535;51.098;6.414;2023-07-31T05:09:59;5.67;;;5.37;;
3050;SDS011;1535;51.098;6.414;2023-07-31T05:12:27;6.40;;;5.93;;
3050;SDS011;1535;51.098;6.414;2023-07-31T05:14:54;8.23;;;7.53;;
3050;SDS011;1535;51.098;6.414;2023-07-31T05:17:20;7.10;;;6.63;;
3050;SDS011;1535;51.098;6.414;2023-07-31T05:19:49;7.37;;;6.87;;
3050;SDS011;1535;51.098;6.414;2023-07-31T05:22:16;5.63;;;5.40;;
3050;SDS011;1535;51.098;6.414;2023-07-31T05:24:44;8.87;;;8.53;;
3050;SDS011;1535;51.098;6.414;2023-07-31T05:27:12;7.27;;;6.67;;
3050;SDS011;1535;51.098;6.414;2023-07-31T05:29:43;5.80;;;5.50;;
3050;SDS011;1535;51.098;6.414;2023-07-31T05:32:10;5.33;;;5.13;;
3050;SDS011;1535;51.098;6.414;2023-07-31T05:34:37;5.10;;;5.00;;
3050;SDS011;1535;51.098;6.414;2023-07-31T05:37:04;7.17;;;6.73;;
3050;SDS011;1535;51.098;6.414;2023-07-31T05:39:32;13.70;;;7.13;;
3050;SDS011;1535;51.098;6.414;2023-07-31T05:42:01;6.77;;;6.50;;
3050;SDS011;1535;51.098;6.414;2023-07-31T05:44:28;16.70;;;15.47;;
3050;SDS011;1535;51.098;6.414;2023-07-31T05:46:56;13.67;;;13.03;;
3050;SDS011;1535;51.098;6.414;2023-07-31T05:49:23;12.77;;;12.07;;
3050;SDS011;1535;51.098;6.414;2023-07-31T05:51:50;13.53;;;12.40;;
3050;SDS011;1535;51.098;6.414;2023-07-31T05:54:17;10.30;;;9.87;;
3050;SDS011;1535;51.098;6.414;2023-07-31T05:56:45;10.50;;;9.70;;
3050;SDS011;1535;51.098;6.414;2023-07-31T05:59:14;8.77;;;8.47;;
3050;SDS011;1535;51.098;6.414;2023-07-31T06:01:42;9.10;;;8.70;;
3050;SDS011;1535;51.098;6.414;2023-07-31T06:04:10;17.03;;;8.80;;
3050;SDS011;1535;51.098;6.414;2023-07-31T06:06:36;9.53;;;9.00;;
3050;SDS011;1535;51.098;6.414;2023-07-31T06:09:03;8.73;;;8.33;;
3050;SDS011;1535;51.098;6.414;2023-07-31T06:11:32;8.80;;;8.40;;
3050;SDS011;1535;51.098;6.414;2023-07-31T06:13:59;8.20;;;7.90;;
3050;SDS011;1535;51.098;6.414;2023-07-31T06:16:27;8.43;;;7.97;;
3050;SDS011;1535;51.098;6.414;2023-07-31T06:18:54;7.80;;;7.40;;
3050;SDS011;1535;51.098;6.414;2023-07-31T06:21:21;6.97;;;6.57;;
3050;SDS011;1535;51.098;6.414;2023-07-31T06:23:48;7.50;;;7.00;;
3050;SDS011;1535;51.098;6.414;2023-07-31T06:26:15;8.77;;;7.30;;
3050;SDS011;1535;51.098;6.414;2023-07-31T06:28:41;5.50;;;5.40;;
3050;SDS011;1535;51.098;6.414;2023-07-31T06:31:08;6.63;;;6.30;;
3050;SDS011;1535;51.098;6.414;2023-07-31T06:33:37;5.07;;;4.93;;
3050;SDS011;1535;51.098;6.414;2023-07-31T06:36:04;6.03;;;5.83;;
3050;SDS011;1535;51.098;6.414;2023-07-31T06:38:31;5.00;;;4.90;;
3050;SDS011;1535;51.098;6.414;2023-07-31T06:40:58;6.80;;;6.30;;
3050;SDS011;1535;51.098;6.414;2023-07-31T06:43:25;6.27;;;5.97;;
3050;SDS011;1535;51.098;6.414;2023-07-31T06:45:52;7.13;;;6.73;;
3050;SDS011;1535;51.098;6.414;2023-07-31T06:48:19;7.00;;;6.00;;
3050;SDS011;1535;51.098;6.414;2023-07-31T06:50:48;5.93;;;5.73;;
3050;SDS011;1535;51.098;6.414;2023-07-31T06:53:14;6.83;;;6.33;;
3050;SDS011;1535;51.098;6.414;2023-07-31T06:55:41;6.83;;;6.53;;
3050;SDS011;1535;51.098;6.414;2023-07-31T06:58:08;7.03;;;6.73;;
3050;SDS011;1535;51.098;6.414;2023-07-31T07:00:35;7.83;;;7.40;;
3050;SDS011;1535;51.098;6.414;2023-07-31T07:03:02;6.43;;;6.20;;
3050;SDS011;1535;51.098;6.414;2023-07-31T07:05:30;6.30;;;6.10;;
3050;SDS011;1535;51.098;6.414;2023-07-31T07:07:58;9.07;;;8.67;;
3050;SDS011;1535;51.098;6.414;2023-07-31T07:10:25;9.40;;;9.00;;
3050;SDS011;1535;51.098;6.414;2023-07-31T07:12:54;9.00;;;8.70;;
3050;SDS011;1535;51.098;6.414;2023-07-31T07:15:21;8.03;;;7.73;;
3050;SDS011;1535;51.098;6.414;2023-07-31T07:17:48;10.83;;;9.60;;
3050;SDS011;1535;51.098;6.414;2023-07-31T07:20:15;8.37;;;7.97;;
3050;SDS011;1535;51.098;6.414;2023-07-31T07:22:42;6.00;;;5.80;;
3050;SDS011;1535;51.098;6.414;2023-07-31T07:25:10;6.67;;;6.33;;
3050;SDS011;1535;51.098;6.414;2023-07-31T07:27:37;8.43;;;8.13;;
3050;SDS011;1535;51.098;6.414;2023-07-31T07:30:04;8.50;;;7.77;;
3050;SDS011;1535;51.098;6.414;2023-07-31T07:32:32;5.80;;;5.60;;
3050;SDS011;1535;51.098;6.414;2023-07-31T07:34:59;5.97;;;5.77;;
3050;SDS011;1535;51.098;6.414;2023-07-31T07:37:27;7.00;;;6.60;;
3050;SDS011;1535;51.098;6.414;2023-07-31T07:39:54;6.30;;;6.10;;
3050;SDS011;1535;51.098;6.414;2023-07-31T07:42:23;5.60;;;5.43;;
3050;SDS011;1535;51.098;6.414;2023-07-31T07:44:50;7.17;;;6.77;;
3050;SDS011;1535;51.098;6.414;2023-07-31T07:47:17;6.77;;;6.10;;
3050;SDS011;1535;51.098;6.414;2023-07-31T07:49:44;5.83;;;5.63;;
3050;SDS011;1535;51.098;6.414;2023-07-31T07:52:11;5.60;;;5.40;;
3050;SDS011;1535;51.098;6.414;2023-07-31T07:54:38;6.10;;;5.50;;
3050;SDS011;1535;51.098;6.414;2023-07-31T07:57:05;6.03;;;5.73;;
3050;SDS011;1535;51.098;6.414;2023-07-31T07:59:34;6.07;;;5.87;;
3050;SDS011;1535;51.098;6.414;2023-07-31T08:02:00;5.80;;;5.53;;
3050;SDS011;1535;51.098;6.414;2023-07-31T08:04:27;5.30;;;5.20;;
3050;SDS011;1535;51.098;6.414;2023-07-31T08:06:54;6.80;;;6.20;;
3050;SDS011;1535;51.098;6.414;2023-07-31T08:09:21;8.50;;;7.87;;
3050;SDS011;1535;51.098;6.414;2023-07-31T08:11:48;5.53;;;5.33;;
3050;SDS011;1535;51.098;6.414;2023-07-31T08:14:15;5.73;;;5.50;;
3050;SDS011;1535;51.098;6.414;2023-07-31T08:16:45;4.60;;;4.40;;
3050;SDS011;1535;51.098;6.414;2023-07-31T08:19:12;4.43;;;4.23;;
3050;SDS011;1535;51.098;6.414;2023-07-31T08:21:39;5.70;;;5.43;;
3050;SDS011;1535;51.098;6.414;2023-07-31T08:24:06;4.33;;;4.13;;
3050;SDS011;1535;51.098;6.414;2023-07-31T08:26:33;3.97;;;3.80;;
3050;SDS011;1535;51.098;6.414;2023-07-31T08:29:00;5.93;;;5.33;;
3050;SDS011;1535;51.098;6.414;2023-07-31T08:31:27;5.83;;;5.53;;
3050;SDS011;1535;51.098;6.414;2023-07-31T08:33:56;5.70;;;5.40;;
3050;SDS011;1535;51.098;6.414;2023-07-31T08:36:22;7.13;;;6.53;;
3050;SDS011;1535;51.098;6.414;2023-07-31T08:38:49;5.00;;;4.80;;
3050;SDS011;1535;51.098;6.414;2023-07-31T08:41:16;7.50;;;6.80;;
3050;SDS011;1535;51.098;6.414;2023-07-31T08:43:43;6.07;;;5.57;;
3050;SDS011;1535;51.098;6.414;2023-07-31T08:46:11;5.90;;;5.60;;
3050;SDS011;1535;51.098;6.414;2023-07-31T08:48:39;7.07;;;6.67;;
3050;SDS011;1535;51.098;6.414;2023-07-31T08:51:10;5.63;;;5.43;;
3050;SDS011;1535;51.098;6.414;2023-07-31T08:53:37;6.50;;;5.90;;
3050;SDS011;1535;51.098;6.414;2023-07-31T08:56:03;7.10;;;6.60;;
3050;SDS011;1535;51.098;6.414;2023-07-31T08:58:32;4.87;;;4.67;;
3050;SDS011;1535;51.098;6.414;2023-07-31T09:01:01;4.90;;;4.50;;
3050;SDS011;1535;51.098;6.414;2023-07-31T09:03:31;6.00;;;4.60;;
3050;SDS011;1535;51.098;6.414;2023-07-31T09:06:00;3.97;;;3.87;;
3050;SDS011;1535;51.098;6.414;2023-07-31T09:08:32;4.07;;;3.87;;
3050;SDS011;1535;51.098;6.414;2023-07-31T09:10:59;4.10;;;4.00;;
3050;SDS011;1535;51.098;6.414;2023-07-31T09:13:29;4.53;;;4.23;;
3050;SDS011;1535;51.098;6.414;2023-07-31T09:15:56;4.27;;;4.10;;
3050;SDS011;1535;51.098;6.414;2023-07-31T09:18:23;4.90;;;4.60;;
3050;SDS011;1535;51.098;6.414;2023-07-31T09:21:00;3.80;;;3.60;;
3050;SDS011;1535;51.098;6.414;2023-07-31T09:23:40;4.73;;;4.53;;
3050;SDS011;1535;51.098;6.414;2023-07-31T09:26:08;6.40;;;6.00;;
3050;SDS011;1535;51.098;6.414;2023-07-31T09:28:35;4.77;;;4.57;;
3050;SDS011;1535;51.098;6.414;2023-07-31T09:31:02;4.50;;;4.40;;
3050;SDS011;1535;51.098;6.414;2023-07-31T09:33:29;7.00;;;6.53;;
3050;SDS011;1535;51.098;6.414;2023-07-31T09:35:58;6.83;;;6.33;;
3050;SDS011;1535;51.098;6.414;2023-07-31T09:38:25;5.73;;;5.50;;
3050;SDS011;1535;51.098;6.414;2023-07-31T09:40:55;5.53;;;5.33;;
3050;SDS011;1535;51.098;6.414;2023-07-31T09:43:24;6.33;;;6.03;;
3050;SDS011;1535;51.098;6.414;2023-07-31T09:45:54;5.10;;;5.00;;
3050;SDS011;1535;51.098;6.414;2023-07-31T09:48:23;9.33;;;7.70;;
3050;SDS011;1535;51.098;6.414;2023-07-31T09:50:52;7.40;;;7.00;;
3050;SDS011;1535;51.098;6.414;2023-07-31T09:53:20;6.87;;;6.37;;
3050;SDS011;1535;51.098;6.414;2023-07-31T09:55:57;7.30;;;6.80;;
3050;SDS011;1535;51.098;6.414;2023-07-31T09:58:26;4.70;;;4.60;;
3050;SDS011;1535;51.098;6.414;2023-07-31T10:00:55;5.60;;;5.40;;
3050;SDS011;1535;51.098;6.414;2023-07-31T10:03:25;7.60;;;6.93;;
3050;SDS011;1535;51.098;6.414;2023-07-31T10:05:53;5.40;;;5.10;;
3050;SDS011;1535;51.098;6.414;2023-07-31T10:08:23;4.60;;;4.50;;
3050;SDS011;1535;51.098;6.414;2023-07-31T10:10:57;6.33;;;6.03;;
3050;SDS011;1535;51.098;6.414;2023-07-31T10:13:27;4.67;;;4.47;;
3050;SDS011;1535;51.098;6.414;2023-07-31T10:15:55;5.63;;;5.30;;
3050;SDS011;1535;51.098;6.414;2023-07-31T10:18:26;8.67;;;5.37;;
3050;SDS011;1535;51.098;6.414;2023-07-31T10:20:53;3.00;;;2.90;;
3050;SDS011;1535;51.098;6.414;2023-07-31T10:23:23;4.63;;;4.23;;
3050;SDS011;1535;51.098;6.414;2023-07-31T10:25:51;9.13;;;5.63;;
3050;SDS011;1535;51.098;6.414;2023-07-31T10:28:21;4.40;;;4.30;;
3050;SDS011;1535;51.098;6.414;2023-07-31T10:30:49;4.00;;;3.90;;
3050;SDS011;1535;51.098;6.414;2023-07-31T10:33:18;5.00;;;4.70;;
3050;SDS011;1535;51.098;6.414;2023-07-31T10:35:47;5.73;;;5.33;;
3050;SDS011;1535;51.098;6.414;2023-07-31T10:38:14;6.80;;;6.40;;
3050;SDS011;1535;51.098;6.414;2023-07-31T10:40:41;7.27;;;6.50;;
3050;SDS011;1535;51.098;6.414;2023-07-31T10:43:08;5.93;;;5.63;;
3050;SDS011;1535;51.098;6.414;2023-07-31T10:45:50;4.90;;;4.77;;
3050;SDS011;1535;51.098;6.414;2023-07-31T10:48:17;5.83;;;5.43;;
3050;SDS011;1535;51.098;6.414;2023-07-31T10:50:46;5.87;;;5.57;;
3050;SDS011;1535;51.098;6.414;2023-07-31T10:53:22;5.70;;;5.47;;
3050;SDS011;1535;51.098;6.414;2023-07-31T10:55:49;5.83;;;5.63;;
3050;SDS011;1535;51.098;6.414;2023-07-31T10:58:17;6.97;;;6.67;;
3050;SDS011;1535;51.098;6.414;2023-07-31T11:00:45;7.80;;;7.40;;
3050;SDS011;1535;51.098;6.414;2023-07-31T11:03:15;8.10;;;7.70;;
3050;SDS011;1535;51.098;6.414;2023-07-31T11:05:44;8.47;;;8.17;;
3050;SDS011;1535;51.098;6.414;2023-07-31T11:08:12;7.93;;;7.43;;
3050;SDS011;1535;51.098;6.414;2023-07-31T11:10:39;8.83;;;8.43;;
3050;SDS011;1535;51.098;6.414;2023-07-31T11:13:06;9.00;;;8.60;;
3050;SDS011;1535;51.098;6.414;2023-07-31T11:15:33;8.20;;;7.90;;
3050;SDS011;1535;51.098;6.414;2023-07-31T11:18:01;9.53;;;8.83;;
3050;SDS011;1535;51.098;6.414;2023-07-31T11:20:32;10.00;;;9.60;;
3050;SDS011;1535;51.098;6.414;2023-07-31T11:23:02;10.63;;;10.23;;
3050;SDS011;1535;51.098;6.414;2023-07-31T11:25:30;11.03;;;10.53;;
3050;SDS011;1535;51.098;6.414;2023-07-31T11:28:03;10.73;;;10.00;;
3050;SDS011;1535;51.098;6.414;2023-07-31T11:30:30;11.97;;;11.47;;
3050;SDS011;1535;51.098;6.414;2023-07-31T11:32:57;11.03;;;10.60;;
3050;SDS011;1535;51.098;6.414;2023-07-31T11:35:24;10.87;;;10.47;;
3050;SDS011;1535;51.098;6.414;2023-07-31T11:37:52;12.53;;;11.93;;
3050;SDS011;1535;51.098;6.414;2023-07-31T11:40:19;11.97;;;11.27;;
3050;SDS011;1535;51.098;6.414;2023-07-31T11:42:47;11.87;;;11.37;;
3050;SDS011;1535;51.098;6.414;2023-07-31T11:45:14;11.90;;;11.33;;
3050;SDS011;1535;51.098;6.414;2023-07-31T11:47:41;11.40;;;11.00;;
3050;SDS011;1535;51.098;6.414;2023-07-31T11:50:10;11.50;;;11.10;;
3050;SDS011;1535;51.098;6.414;2023-07-31T11:52:39;10.80;;;10.40;;
3050;SDS011;1535;51.098;6.414;2023-07-31T11:55:11;11.03;;;10.30;;
3050;SDS011;1535;51.098;6.414;2023-07-31T11:57:39;8.90;;;8.60;;
3050;SDS011;1535;51.098;6.414;2023-07-31T12:00:09;9.30;;;8.70;;
3050;SDS011;1535;51.098;6.414;2023-07-31T12:02:38;6.80;;;6.60;;
3050;SDS011;1535;51.098;6.414;2023-07-31T12:05:06;6.20;;;5.90;;
3050;SDS011;1535;51.098;6.414;2023-07-31T12:07:43;6.57;;;6.37;;
3050;SDS011;1535;51.098;6.414;2023-07-31T12:10:12;6.77;;;6.47;;
3050;SDS011;1535;51.098;6.414;2023-07-31T12:12:55;5.03;;;4.93;;
3050;SDS011;1535;51.098;6.414;2023-07-31T12:15:29;6.17;;;5.80;;
3050;SDS011;1535;51.098;6.414;2023-07-31T12:18:00;6.57;;;6.10;;
3050;SDS011;1535;51.098;6.414;2023-07-31T12:20:31;5.53;;;5.33;;
3050;SDS011;1535;51.098;6.414;2023-07-31T12:22:59;4.83;;;4.43;;
3050;SDS011;1535;51.098;6.414;2023-07-31T12:25:33;3.70;;;3.50;;
3050;SDS011;1535;51.098;6.414;2023-07-31T12:28:04;3.00;;;2.90;;
3050;SDS011;1535;51.098;6.414;2023-07-31T12:30:36;4.70;;;4.50;;
3050;SDS011;1535;51.098;6.414;2023-07-31T12:33:04;3.57;;;3.43;;
3050;SDS011;1535;51.098;6.414;2023-07-31T12:35:36;3.00;;;2.90;;
3050;SDS011;1535;51.098;6.414;2023-07-31T12:38:03;5.60;;;3.97;;
3050;SDS011;1535;51.098;6.414;2023-07-31T12:40:32;3.17;;;3.07;;
3050;SDS011;1535;51.098;6.414;2023-07-31T12:43:00;3.90;;;3.73;;
3050;SDS011;1535;51.098;6.414;2023-07-31T12:45:28;4.77;;;4.37;;
3050;SDS011;1535;51.098;6.414;2023-07-31T12:47:56;5.80;;;5.40;;
3050;SDS011;1535;51.098;6.414;2023-07-31T12:50:22;6.37;;;6.07;;
3050;SDS011;1535;51.098;6.414;2023-07-31T12:52:50;8.30;;;7.90;;
3050;SDS011;1535;51.098;6.414;2023-07-31T12:55:17;8.43;;;7.93;;
3050;SDS011;1535;51.098;6.414;2023-07-31T12:57:46;7.53;;;7.23;;
3050;SDS011;1535;51.098;6.414;2023-07-31T13:00:13;9.07;;;8.57;;
3050;SDS011;1535;51.098;6.414;2023-07-31T13:02:40;9.10;;;8.70;;
3050;SDS011;1535;51.098;6.414;2023-07-31T13:05:07;8.60;;;8.20;;
3050;SDS011;1535;51.098;6.414;2023-07-31T13:07:34;8.73;;;8.37;;
3050;SDS011;1535;51.098;6.414;2023-07-31T13:10:02;10.97;;;10.30;;
3050;SDS011;1535;51.098;6.414;2023-07-31T13:12:29;11.07;;;10.57;;
3050;SDS011;1535;51.098;6.414;2023-07-31T13:14:57;10.60;;;10.10;;
3050;SDS011;1535;51.098;6.414;2023-07-31T13:17:24;11.60;;;11.10;;
3050;SDS011;1535;51.098;6.414;2023-07-31T13:19:51;13.20;;;12.00;;
3050;SDS011;1535;51.098;6.414;2023-07-31T13:22:18;12.87;;;12.27;;
3050;SDS011;1535;51.098;6.414;2023-07-31T13:24:45;13.33;;;12.63;;
3050;SDS011;1535;51.098;6.414;2023-07-31T13:27:12;13.17;;;12.47;;
3050;SDS011;1535;51.098;6.414;2023-07-31T13:29:41;14.00;;;13.00;;
3050;SDS011;1535;51.098;6.414;2023-07-31T13:32:10;13.80;;;13.20;;
3050;SDS011;1535;51.098;6.414;2023-07-31T13:34:37;15.20;;;14.43;;
3050;SDS011;1535;51.098;6.414;2023-07-31T13:37:04;15.70;;;14.50;;
3050;SDS011;1535;51.098;6.414;2023-07-31T13:39:32;14.30;;;13.70;;
3050;SDS011;1535;51.098;6.414;2023-07-31T13:41:59;15.80;;;15.00;;
3050;SDS011;1535;51.098;6.414;2023-07-31T13:44:26;14.90;;;14.20;;
3050;SDS011;1535;51.098;6.414;2023-07-31T13:46:53;14.77;;;14.07;;
3050;SDS011;1535;51.098;6.414;2023-07-31T13:49:22;14.90;;;14.20;;
3050;SDS011;1535;51.098;6.414;2023-07-31T13:51:49;15.83;;;14.97;;
3050;SDS011;1535;51.098;6.414;2023-07-31T13:54:16;15.97;;;15.10;;
3050;SDS011;1535;51.098;6.414;2023-07-31T13:56:43;14.73;;;14.03;;
3050;SDS011;1535;51.098;6.414;2023-07-31T13:59:10;15.20;;;14.50;;
3050;SDS011;1535;51.098;6.414;2023-07-31T14:01:38;15.17;;;14.43;;
3050;SDS011;1535;51.098;6.414;2023-07-31T14:04:05;14.37;;;13.63;;
3050;SDS011;1535;51.098;6.414;2023-07-31T14:06:33;14.60;;;13.80;;
3050;SDS011;1535;51.098;6.414;2023-07-31T14:09:00;13.57;;;13.00;;
3050;SDS011;1535;51.098;6.414;2023-07-31T14:11:28;12.93;;;12.43;;
3050;SDS011;1535;51.098;6.414;2023-07-31T14:13:55;12.30;;;11.77;;
3050;SDS011;1535;51.098;6.414;2023-07-31T14:16:22;12.53;;;12.00;;
3050;SDS011;1535;51.098;6.414;2023-07-31T14:18:49;13.00;;;12.30;;
3050;SDS011;1535;51.098;6.414;2023-07-31T14:21:18;13.10;;;12.50;;
3050;SDS011;1535;51.098;6.414;2023-07-31T14:23:46;13.50;;;12.77;;
3050;SDS011;1535;51.098;6.414;2023-07-31T14:26:13;13.60;;;13.00;;
3050;SDS011;1535;51.098;6.414;2023-07-31T14:28:40;13.03;;;12.53;;
3050;SDS011;1535;51.098;6.414;2023-07-31T14:31:08;14.40;;;13.60;;
3050;SDS011;1535;51.098;6.414;2023-07-31T14:33:35;14.10;;;13.50;;
3050;SDS011;1535;51.098;6.414;2023-07-31T14:36:02;13.20;;;12.70;;
3050;SDS011;1535;51.098;6.414;2023-07-31T14:38:29;14.40;;;13.80;;
3050;SDS011;1535;51.098;6.414;2023-07-31T14:40:58;15.37;;;13.97;;
3050;SDS011;1535;51.098;6.414;2023-07-31T14:43:26;14.37;;;13.77;;
3050;SDS011;1535;51.098;6.414;2023-07-31T14:45:52;13.60;;;13.10;;
3050;SDS011;1535;51.098;6.414;2023-07-31T14:48:21;13.70;;;13.10;;
3050;SDS011;1535;51.098;6.414;2023-07-31T14:50:47;14.10;;;13.50;;
3050;SDS011;1535;51.098;6.414;2023-07-31T14:53:14;15.70;;;15.07;;
3050;SDS011;1535;51.098;6.414;2023-07-31T14:55:41;13.13;;;12.63;;
3050;SDS011;1535;51.098;6.414;2023-07-31T14:58:09;13.60;;;13.00;;
3050;SDS011;1535;51.098;6.414;2023-07-31T15:00:38;14.13;;;13.37;;
3050;SDS011;1535;51.098;6.414;2023-07-31T15:03:06;13.00;;;12.50;;
3050;SDS011;1535;51.098;6.414;2023-07-31T15:05:33;13.50;;;12.90;;
3050;SDS011;1535;51.098;6.414;2023-07-31T15:08:00;12.70;;;12.20;;
3050;SDS011;1535;51.098;6.414;2023-07-31T15:10:27;13.50;;;12.90;;
3050;SDS011;1535;51.098;6.414;2023-07-31T15:12:55;13.20;;;12.70;;
3050;SDS011;1535;51.098;6.414;2023-07-31T15:15:23;13.70;;;13.10;;
3050;SDS011;1535;51.098;6.414;2023-07-31T15:17:52;12.50;;;12.10;;